sensor_id;sensor_type;location;lat;lon;timestamp;P1;durP1;ratioP1;P2;durP2;ratioP2
41305;SDS011;27051;50.376;19.152;2022-08-21T00:01:11;21.77;;;11.03;;
41305;SDS011;27051;50.376;19.152;2022-08-21T00:03:41;20.82;;;11.93;;
41305;SDS011;27051;50.376;19.152;2022-08-21T00:06:09;24.60;;;12.85;;
41305;SDS011;27051;50.376;19.152;2022-08-21T00:08:36;20.77;;;10.88;;
41305;SDS011;27051;50.376;19.152;2022-08-21T00:11:03;21.73;;;11.78;;
41305;SDS011;27051;50.376;19.152;2022-08-21T00:13:31;20.12;;;12.00;;
41305;SDS011;27051;50.376;19.152;2022-08-21T00:15:59;23.50;;;11.93;;
41305;SDS011;27051;50.376;19.152;2022-08-21T00:18:26;22.45;;;12.88;;
41305;SDS011;27051;50.376;19.152;2022-08-21T00:20:53;20.77;;;12.93;;
41305;SDS011;27051;50.376;19.152;2022-08-21T00:23:21;24.12;;;12.90;;
41305;SDS011;27051;50.376;19.152;2022-08-21T00:25:49;19.27;;;12.10;;
41305;SDS011;27051;50.376;19.152;2022-08-21T00:28:15;19.00;;;11.63;;
41305;SDS011;27051;50.376;19.152;2022-08-21T00:30:42;23.77;;;12.80;;
41305;SDS011;27051;50.376;19.152;2022-08-21T00:33:10;35.68;;;14.45;;
41305;SDS011;27051;50.376;19.152;2022-08-21T00:35:39;22.13;;;12.85;;
41305;SDS011;27051;50.376;19.152;2022-08-21T00:38:08;23.15;;;12.85;;
41305;SDS011;27051;50.376;19.152;2022-08-21T00:40:38;22.42;;;13.50;;
41305;SDS011;27051;50.376;19.152;2022-08-21T00:43:12;21.73;;;13.68;;
41305;SDS011;27051;50.376;19.152;2022-08-21T00:45:41;24.98;;;13.98;;
41305;SDS011;27051;50.376;19.152;2022-08-21T00:48:09;22.93;;;13.43;;
41305;SDS011;27051;50.376;19.152;2022-08-21T00:50:38;24.67;;;13.30;;
41305;SDS011;27051;50.376;19.152;2022-08-21T00:53:11;24.98;;;13.32;;
41305;SDS011;27051;50.376;19.152;2022-08-21T00:55:39;24.50;;;13.40;;
41305;SDS011;27051;50.376;19.152;2022-08-21T00:58:08;22.73;;;14.03;;
41305;SDS011;27051;50.376;19.152;2022-08-21T01:00:39;22.60;;;13.70;;
41305;SDS011;27051;50.376;19.152;2022-08-21T01:03:11;28.95;;;14.75;;
41305;SDS011;27051;50.376;19.152;2022-08-21T01:05:41;28.07;;;14.20;;
41305;SDS011;27051;50.376;19.152;2022-08-21T01:08:08;24.23;;;14.43;;
41305;SDS011;27051;50.376;19.152;2022-08-21T01:10:36;23.45;;;13.95;;
41305;SDS011;27051;50.376;19.152;2022-08-21T01:13:05;21.70;;;13.00;;
41305;SDS011;27051;50.376;19.152;2022-08-21T01:15:36;20.60;;;12.55;;
41305;SDS011;27051;50.376;19.152;2022-08-21T01:20:35;21.42;;;13.78;;
41305;SDS011;27051;50.376;19.152;2022-08-21T01:23:04;23.85;;;14.33;;
41305;SDS011;27051;50.376;19.152;2022-08-21T01:25:32;24.23;;;14.68;;
41305;SDS011;27051;50.376;19.152;2022-08-21T01:28:01;19.50;;;12.30;;
41305;SDS011;27051;50.376;19.152;2022-08-21T01:30:32;23.42;;;13.25;;
41305;SDS011;27051;50.376;19.152;2022-08-21T01:33:01;24.40;;;13.93;;
41305;SDS011;27051;50.376;19.152;2022-08-21T01:35:28;26.15;;;14.65;;
41305;SDS011;27051;50.376;19.152;2022-08-21T01:37:57;23.12;;;13.60;;
41305;SDS011;27051;50.376;19.152;2022-08-21T01:40:24;25.75;;;14.23;;
41305;SDS011;27051;50.376;19.152;2022-08-21T01:42:51;22.32;;;14.63;;
41305;SDS011;27051;50.376;19.152;2022-08-21T01:45:18;27.25;;;14.13;;
41305;SDS011;27051;50.376;19.152;2022-08-21T01:47:45;21.95;;;13.68;;
41305;SDS011;27051;50.376;19.152;2022-08-21T01:50:15;26.45;;;13.85;;
41305;SDS011;27051;50.376;19.152;2022-08-21T01:52:43;21.33;;;13.45;;
41305;SDS011;27051;50.376;19.152;2022-08-21T01:55:11;24.40;;;13.05;;
41305;SDS011;27051;50.376;19.152;2022-08-21T01:57:39;26.90;;;14.70;;
41305;SDS011;27051;50.376;19.152;2022-08-21T02:00:09;27.73;;;14.47;;
41305;SDS011;27051;50.376;19.152;2022-08-21T02:02:40;24.40;;;13.62;;
41305;SDS011;27051;50.376;19.152;2022-08-21T02:05:08;28.42;;;14.25;;
41305;SDS011;27051;50.376;19.152;2022-08-21T02:07:43;25.68;;;14.63;;
41305;SDS011;27051;50.376;19.152;2022-08-21T02:10:11;24.07;;;13.78;;
41305;SDS011;27051;50.376;19.152;2022-08-21T02:12:40;21.15;;;13.85;;
41305;SDS011;27051;50.376;19.152;2022-08-21T02:15:08;25.35;;;14.50;;
41305;SDS011;27051;50.376;19.152;2022-08-21T02:17:42;29.92;;;13.18;;
41305;SDS011;27051;50.376;19.152;2022-08-21T02:20:16;21.80;;;13.58;;
41305;SDS011;27051;50.376;19.152;2022-08-21T02:22:51;25.00;;;13.45;;
41305;SDS011;27051;50.376;19.152;2022-08-21T02:25:18;24.10;;;12.68;;
41305;SDS011;27051;50.376;19.152;2022-08-21T02:27:48;21.87;;;13.75;;
41305;SDS011;27051;50.376;19.152;2022-08-21T02:30:18;30.17;;;13.45;;
41305;SDS011;27051;50.376;19.152;2022-08-21T02:32:48;29.70;;;14.73;;
41305;SDS011;27051;50.376;19.152;2022-08-21T02:35:16;22.70;;;12.85;;
41305;SDS011;27051;50.376;19.152;2022-08-21T02:37:48;23.00;;;14.13;;
41305;SDS011;27051;50.376;19.152;2022-08-21T02:40:15;25.75;;;13.72;;
41305;SDS011;27051;50.376;19.152;2022-08-21T02:42:45;36.08;;;14.18;;
41305;SDS011;27051;50.376;19.152;2022-08-21T02:45:12;24.75;;;14.58;;
41305;SDS011;27051;50.376;19.152;2022-08-21T02:47:46;24.07;;;14.03;;
41305;SDS011;27051;50.376;19.152;2022-08-21T02:50:22;23.38;;;14.53;;
41305;SDS011;27051;50.376;19.152;2022-08-21T02:52:52;21.75;;;13.43;;
41305;SDS011;27051;50.376;19.152;2022-08-21T02:55:21;24.60;;;14.33;;
41305;SDS011;27051;50.376;19.152;2022-08-21T02:57:56;22.32;;;14.50;;
41305;SDS011;27051;50.376;19.152;2022-08-21T03:00:25;27.30;;;16.02;;
41305;SDS011;27051;50.376;19.152;2022-08-21T03:02:55;26.37;;;15.58;;
41305;SDS011;27051;50.376;19.152;2022-08-21T03:05:25;30.12;;;15.98;;
41305;SDS011;27051;50.376;19.152;2022-08-21T03:07:55;24.65;;;16.05;;
41305;SDS011;27051;50.376;19.152;2022-08-21T03:10:22;27.27;;;16.20;;
41305;SDS011;27051;50.376;19.152;2022-08-21T03:12:49;28.30;;;16.55;;
41305;SDS011;27051;50.376;19.152;2022-08-21T03:15:16;28.17;;;17.07;;
41305;SDS011;27051;50.376;19.152;2022-08-21T03:17:45;26.57;;;17.17;;
41305;SDS011;27051;50.376;19.152;2022-08-21T03:20:14;30.23;;;15.63;;
41305;SDS011;27051;50.376;19.152;2022-08-21T03:22:44;28.15;;;16.37;;
41305;SDS011;27051;50.376;19.152;2022-08-21T03:25:12;29.60;;;17.82;;
41305;SDS011;27051;50.376;19.152;2022-08-21T03:27:38;30.08;;;17.23;;
41305;SDS011;27051;50.376;19.152;2022-08-21T03:30:06;31.17;;;17.35;;
41305;SDS011;27051;50.376;19.152;2022-08-21T03:32:35;28.62;;;17.77;;
41305;SDS011;27051;50.376;19.152;2022-08-21T03:35:03;27.82;;;18.12;;
41305;SDS011;27051;50.376;19.152;2022-08-21T03:37:32;28.95;;;18.17;;
41305;SDS011;27051;50.376;19.152;2022-08-21T03:40:00;30.08;;;19.90;;
41305;SDS011;27051;50.376;19.152;2022-08-21T03:42:27;33.67;;;18.95;;
41305;SDS011;27051;50.376;19.152;2022-08-21T03:44:53;35.80;;;19.62;;
41305;SDS011;27051;50.376;19.152;2022-08-21T03:47:20;33.60;;;20.05;;
41305;SDS011;27051;50.376;19.152;2022-08-21T03:49:46;31.12;;;19.82;;
41305;SDS011;27051;50.376;19.152;2022-08-21T03:52:13;28.45;;;19.07;;
41305;SDS011;27051;50.376;19.152;2022-08-21T03:54:41;32.75;;;18.37;;
41305;SDS011;27051;50.376;19.152;2022-08-21T03:57:08;38.38;;;19.90;;
41305;SDS011;27051;50.376;19.152;2022-08-21T03:59:36;31.65;;;19.73;;
41305;SDS011;27051;50.376;19.152;2022-08-21T04:02:04;33.53;;;18.92;;
41305;SDS011;27051;50.376;19.152;2022-08-21T04:04:33;32.80;;;20.77;;
41305;SDS011;27051;50.376;19.152;2022-08-21T04:07:01;32.38;;;19.62;;
41305;SDS011;27051;50.376;19.152;2022-08-21T04:09:29;38.33;;;20.68;;
41305;SDS011;27051;50.376;19.152;2022-08-21T04:11:56;31.73;;;19.62;;
41305;SDS011;27051;50.376;19.152;2022-08-21T04:14:24;34.25;;;20.20;;
41305;SDS011;27051;50.376;19.152;2022-08-21T04:16:51;32.08;;;21.17;;
41305;SDS011;27051;50.376;19.152;2022-08-21T04:19:17;33.45;;;21.48;;
41305;SDS011;27051;50.376;19.152;2022-08-21T04:21:44;35.25;;;21.77;;
41305;SDS011;27051;50.376;19.152;2022-08-21T04:24:10;36.68;;;22.58;;
41305;SDS011;27051;50.376;19.152;2022-08-21T04:26:37;38.05;;;21.82;;
41305;SDS011;27051;50.376;19.152;2022-08-21T04:29:05;34.98;;;21.57;;
41305;SDS011;27051;50.376;19.152;2022-08-21T04:31:33;33.23;;;22.13;;
41305;SDS011;27051;50.376;19.152;2022-08-21T04:34:02;34.25;;;20.88;;
41305;SDS011;27051;50.376;19.152;2022-08-21T04:36:31;31.07;;;21.50;;
41305;SDS011;27051;50.376;19.152;2022-08-21T04:38:59;31.33;;;21.45;;
41305;SDS011;27051;50.376;19.152;2022-08-21T04:41:26;36.30;;;21.73;;
41305;SDS011;27051;50.376;19.152;2022-08-21T04:43:54;33.10;;;21.45;;
41305;SDS011;27051;50.376;19.152;2022-08-21T04:46:22;30.40;;;20.70;;
41305;SDS011;27051;50.376;19.152;2022-08-21T04:48:49;32.53;;;22.52;;
41305;SDS011;27051;50.376;19.152;2022-08-21T04:51:22;34.23;;;21.95;;
41305;SDS011;27051;50.376;19.152;2022-08-21T04:54:09;37.98;;;23.57;;
41305;SDS011;27051;50.376;19.152;2022-08-21T04:56:41;35.83;;;22.15;;
41305;SDS011;27051;50.376;19.152;2022-08-21T04:59:17;34.98;;;20.65;;
41305;SDS011;27051;50.376;19.152;2022-08-21T05:01:53;36.03;;;23.02;;
41305;SDS011;27051;50.376;19.152;2022-08-21T05:04:21;39.13;;;23.52;;
41305;SDS011;27051;50.376;19.152;2022-08-21T05:09:21;34.45;;;20.50;;
41305;SDS011;27051;50.376;19.152;2022-08-21T05:11:49;35.52;;;23.27;;
41305;SDS011;27051;50.376;19.152;2022-08-21T05:14:17;36.05;;;22.15;;
41305;SDS011;27051;50.376;19.152;2022-08-21T05:16:44;39.83;;;23.47;;
41305;SDS011;27051;50.376;19.152;2022-08-21T05:19:12;33.00;;;23.32;;
41305;SDS011;27051;50.376;19.152;2022-08-21T05:21:41;37.93;;;24.55;;
41305;SDS011;27051;50.376;19.152;2022-08-21T05:24:10;35.98;;;23.62;;
41305;SDS011;27051;50.376;19.152;2022-08-21T05:26:38;32.50;;;22.62;;
41305;SDS011;27051;50.376;19.152;2022-08-21T05:29:05;35.55;;;22.05;;
41305;SDS011;27051;50.376;19.152;2022-08-21T05:31:32;34.75;;;22.87;;
41305;SDS011;27051;50.376;19.152;2022-08-21T05:34:00;35.28;;;23.07;;
41305;SDS011;27051;50.376;19.152;2022-08-21T05:36:26;33.05;;;22.15;;
41305;SDS011;27051;50.376;19.152;2022-08-21T05:38:53;36.45;;;22.75;;
41305;SDS011;27051;50.376;19.152;2022-08-21T05:41:19;35.00;;;23.75;;
41305;SDS011;27051;50.376;19.152;2022-08-21T05:43:46;35.13;;;22.45;;
41305;SDS011;27051;50.376;19.152;2022-08-21T05:46:13;32.63;;;21.42;;
41305;SDS011;27051;50.376;19.152;2022-08-21T05:48:41;34.30;;;22.80;;
41305;SDS011;27051;50.376;19.152;2022-08-21T05:51:09;36.73;;;23.67;;
41305;SDS011;27051;50.376;19.152;2022-08-21T05:53:39;38.75;;;23.50;;
41305;SDS011;27051;50.376;19.152;2022-08-21T05:56:08;33.18;;;23.10;;
41305;SDS011;27051;50.376;19.152;2022-08-21T05:58:36;31.30;;;21.20;;
41305;SDS011;27051;50.376;19.152;2022-08-21T06:01:03;32.50;;;21.35;;
41305;SDS011;27051;50.376;19.152;2022-08-21T06:03:34;34.73;;;21.80;;
41305;SDS011;27051;50.376;19.152;2022-08-21T06:06:05;32.65;;;21.52;;
41305;SDS011;27051;50.376;19.152;2022-08-21T06:08:32;32.13;;;22.93;;
41305;SDS011;27051;50.376;19.152;2022-08-21T06:11:00;34.70;;;21.95;;
41305;SDS011;27051;50.376;19.152;2022-08-21T06:13:30;39.53;;;22.55;;
41305;SDS011;27051;50.376;19.152;2022-08-21T06:16:02;33.30;;;20.20;;
41305;SDS011;27051;50.376;19.152;2022-08-21T06:18:32;33.53;;;22.02;;
41305;SDS011;27051;50.376;19.152;2022-08-21T06:21:00;32.83;;;21.17;;
41305;SDS011;27051;50.376;19.152;2022-08-21T06:23:27;30.05;;;20.88;;
41305;SDS011;27051;50.376;19.152;2022-08-21T06:25:54;31.57;;;21.95;;
41305;SDS011;27051;50.376;19.152;2022-08-21T06:28:22;32.98;;;21.35;;
41305;SDS011;27051;50.376;19.152;2022-08-21T06:30:49;35.80;;;21.37;;
41305;SDS011;27051;50.376;19.152;2022-08-21T06:33:16;34.78;;;21.55;;
41305;SDS011;27051;50.376;19.152;2022-08-21T06:35:42;34.03;;;21.73;;
41305;SDS011;27051;50.376;19.152;2022-08-21T06:38:09;34.20;;;21.68;;
41305;SDS011;27051;50.376;19.152;2022-08-21T06:40:36;32.80;;;20.35;;
41305;SDS011;27051;50.376;19.152;2022-08-21T06:43:05;31.82;;;21.68;;
41305;SDS011;27051;50.376;19.152;2022-08-21T06:45:37;35.40;;;21.50;;
41305;SDS011;27051;50.376;19.152;2022-08-21T06:48:05;36.68;;;21.52;;
41305;SDS011;27051;50.376;19.152;2022-08-21T06:50:32;35.95;;;22.85;;
41305;SDS011;27051;50.376;19.152;2022-08-21T06:53:04;44.25;;;21.25;;
41305;SDS011;27051;50.376;19.152;2022-08-21T06:55:32;34.05;;;21.52;;
41305;SDS011;27051;50.376;19.152;2022-08-21T06:58:00;34.58;;;21.60;;
41305;SDS011;27051;50.376;19.152;2022-08-21T07:00:28;44.42;;;21.48;;
41305;SDS011;27051;50.376;19.152;2022-08-21T07:02:57;38.00;;;21.10;;
41305;SDS011;27051;50.376;19.152;2022-08-21T07:05:25;31.02;;;20.50;;
41305;SDS011;27051;50.376;19.152;2022-08-21T07:07:56;23.27;;;11.83;;
41305;SDS011;27051;50.376;19.152;2022-08-21T07:10:25;10.63;;;6.42;;
41305;SDS011;27051;50.376;19.152;2022-08-21T07:12:53;8.05;;;4.87;;
41305;SDS011;27051;50.376;19.152;2022-08-21T07:15:21;9.10;;;3.52;;
41305;SDS011;27051;50.376;19.152;2022-08-21T07:17:48;4.05;;;2.60;;
41305;SDS011;27051;50.376;19.152;2022-08-21T07:20:14;2.67;;;2.10;;
41305;SDS011;27051;50.376;19.152;2022-08-21T07:22:41;4.15;;;2.02;;
41305;SDS011;27051;50.376;19.152;2022-08-21T07:25:09;4.08;;;2.02;;
41305;SDS011;27051;50.376;19.152;2022-08-21T07:27:36;4.15;;;1.95;;
41305;SDS011;27051;50.376;19.152;2022-08-21T07:30:03;2.45;;;1.75;;
41305;SDS011;27051;50.376;19.152;2022-08-21T07:32:32;2.33;;;1.67;;
41305;SDS011;27051;50.376;19.152;2022-08-21T07:34:58;4.10;;;1.95;;
41305;SDS011;27051;50.376;19.152;2022-08-21T07:37:25;3.45;;;1.67;;
41305;SDS011;27051;50.376;19.152;2022-08-21T07:39:52;2.02;;;1.55;;
41305;SDS011;27051;50.376;19.152;2022-08-21T07:42:18;2.47;;;1.45;;
41305;SDS011;27051;50.376;19.152;2022-08-21T07:44:45;2.22;;;1.27;;
41305;SDS011;27051;50.376;19.152;2022-08-21T07:47:12;1.87;;;1.35;;
41305;SDS011;27051;50.376;19.152;2022-08-21T07:49:38;2.08;;;1.20;;
41305;SDS011;27051;50.376;19.152;2022-08-21T07:52:05;2.55;;;1.20;;
41305;SDS011;27051;50.376;19.152;2022-08-21T07:54:32;2.75;;;1.25;;
41305;SDS011;27051;50.376;19.152;2022-08-21T07:56:59;1.67;;;1.30;;
41305;SDS011;27051;50.376;19.152;2022-08-21T07:59:26;3.50;;;1.37;;
41305;SDS011;27051;50.376;19.152;2022-08-21T08:01:53;1.95;;;0.90;;
41305;SDS011;27051;50.376;19.152;2022-08-21T08:04:19;1.52;;;0.90;;
41305;SDS011;27051;50.376;19.152;2022-08-21T08:06:46;11.97;;;1.32;;
41305;SDS011;27051;50.376;19.152;2022-08-21T08:09:13;1.85;;;1.10;;
41305;SDS011;27051;50.376;19.152;2022-08-21T08:11:40;6.58;;;1.67;;
41305;SDS011;27051;50.376;19.152;2022-08-21T08:14:08;2.50;;;2.27;;
41305;SDS011;27051;50.376;19.152;2022-08-21T08:16:34;4.12;;;2.50;;
41305;SDS011;27051;50.376;19.152;2022-08-21T08:19:01;3.22;;;2.40;;
41305;SDS011;27051;50.376;19.152;2022-08-21T08:21:29;3.22;;;2.30;;
41305;SDS011;27051;50.376;19.152;2022-08-21T08:23:55;2.20;;;1.90;;
41305;SDS011;27051;50.376;19.152;2022-08-21T08:26:22;4.40;;;1.90;;
41305;SDS011;27051;50.376;19.152;2022-08-21T08:28:49;3.70;;;1.72;;
41305;SDS011;27051;50.376;19.152;2022-08-21T08:31:15;5.20;;;1.60;;
41305;SDS011;27051;50.376;19.152;2022-08-21T08:33:42;2.58;;;1.30;;
41305;SDS011;27051;50.376;19.152;2022-08-21T08:36:13;1.37;;;1.20;;
41305;SDS011;27051;50.376;19.152;2022-08-21T08:38:43;1.20;;;1.07;;
41305;SDS011;27051;50.376;19.152;2022-08-21T08:41:14;1.10;;;1.02;;
41305;SDS011;27051;50.376;19.152;2022-08-21T08:43:50;2.72;;;1.42;;
41305;SDS011;27051;50.376;19.152;2022-08-21T08:46:33;1.90;;;1.05;;
41305;SDS011;27051;50.376;19.152;2022-08-21T08:49:11;1.90;;;1.22;;
41305;SDS011;27051;50.376;19.152;2022-08-21T08:51:55;4.00;;;1.45;;
41305;SDS011;27051;50.376;19.152;2022-08-21T08:54:37;3.30;;;1.10;;
41305;SDS011;27051;50.376;19.152;2022-08-21T08:57:19;1.72;;;0.90;;
41305;SDS011;27051;50.376;19.152;2022-08-21T08:59:53;0.98;;;0.82;;
41305;SDS011;27051;50.376;19.152;2022-08-21T09:02:23;1.70;;;1.12;;
41305;SDS011;27051;50.376;19.152;2022-08-21T09:04:51;6.65;;;1.27;;
41305;SDS011;27051;50.376;19.152;2022-08-21T09:12:52;2.75;;;1.22;;
41305;SDS011;27051;50.376;19.152;2022-08-21T09:18:42;1.00;;;0.90;;
41305;SDS011;27051;50.376;19.152;2022-08-21T09:24:17;2.42;;;0.90;;
41305;SDS011;27051;50.376;19.152;2022-08-21T09:27:02;3.12;;;1.30;;
41305;SDS011;27051;50.376;19.152;2022-08-21T09:29:37;0.98;;;0.98;;
41305;SDS011;27051;50.376;19.152;2022-08-21T09:32:18;4.92;;;1.30;;
41305;SDS011;27051;50.376;19.152;2022-08-21T09:37:27;1.87;;;1.00;;
41305;SDS011;27051;50.376;19.152;2022-08-21T09:39:56;2.07;;;0.90;;
41305;SDS011;27051;50.376;19.152;2022-08-21T09:42:29;2.40;;;1.02;;
41305;SDS011;27051;50.376;19.152;2022-08-21T09:45:07;3.02;;;0.70;;
41305;SDS011;27051;50.376;19.152;2022-08-21T09:47:42;0.70;;;0.70;;
41305;SDS011;27051;50.376;19.152;2022-08-21T09:52:55;3.25;;;1.40;;
41305;SDS011;27051;50.376;19.152;2022-08-21T09:58:06;2.75;;;1.00;;
41305;SDS011;27051;50.376;19.152;2022-08-21T10:00:35;3.30;;;1.22;;
41305;SDS011;27051;50.376;19.152;2022-08-21T10:06:05;3.67;;;1.02;;
41305;SDS011;27051;50.376;19.152;2022-08-21T10:08:27;3.58;;;1.77;;
41305;SDS011;27051;50.376;19.152;2022-08-21T10:10:56;5.15;;;2.62;;
41305;SDS011;27051;50.376;19.152;2022-08-21T10:16:44;4.10;;;1.47;;
41305;SDS011;27051;50.376;19.152;2022-08-21T10:25:38;5.12;;;1.60;;
41305;SDS011;27051;50.376;19.152;2022-08-21T10:30:52;2.08;;;1.52;;
41305;SDS011;27051;50.376;19.152;2022-08-21T10:36:36;3.47;;;1.40;;
41305;SDS011;27051;50.376;19.152;2022-08-21T10:42:24;1.67;;;1.40;;
41305;SDS011;27051;50.376;19.152;2022-08-21T10:45:08;1.62;;;1.32;;
41305;SDS011;27051;50.376;19.152;2022-08-21T10:47:57;3.08;;;1.30;;
41305;SDS011;27051;50.376;19.152;2022-08-21T10:50:31;2.42;;;1.10;;
41305;SDS011;27051;50.376;19.152;2022-08-21T10:55:59;3.33;;;1.30;;
41305;SDS011;27051;50.376;19.152;2022-08-21T10:58:45;2.55;;;1.20;;
41305;SDS011;27051;50.376;19.152;2022-08-21T11:01:15;1.90;;;1.10;;
41305;SDS011;27051;50.376;19.152;2022-08-21T11:03:51;2.95;;;1.90;;
41305;SDS011;27051;50.376;19.152;2022-08-21T11:06:24;2.37;;;1.45;;
41305;SDS011;27051;50.376;19.152;2022-08-21T11:08:55;3.08;;;1.35;;
41305;SDS011;27051;50.376;19.152;2022-08-21T11:11:42;3.60;;;1.35;;
41305;SDS011;27051;50.376;19.152;2022-08-21T11:14:56;4.58;;;1.52;;
41305;SDS011;27051;50.376;19.152;2022-08-21T11:17:34;1.95;;;1.55;;
41305;SDS011;27051;50.376;19.152;2022-08-21T11:20:22;1.45;;;1.30;;
41305;SDS011;27051;50.376;19.152;2022-08-21T11:22:42;3.55;;;1.40;;
41305;SDS011;27051;50.376;19.152;2022-08-21T11:25:29;4.50;;;1.77;;
41305;SDS011;27051;50.376;19.152;2022-08-21T11:28:24;1.92;;;1.30;;
41305;SDS011;27051;50.376;19.152;2022-08-21T11:30:44;2.62;;;1.42;;
41305;SDS011;27051;50.376;19.152;2022-08-21T11:33:31;2.58;;;1.45;;
41305;SDS011;27051;50.376;19.152;2022-08-21T11:45:14;3.37;;;1.60;;
41305;SDS011;27051;50.376;19.152;2022-08-21T11:50:49;4.20;;;1.42;;
41305;SDS011;27051;50.376;19.152;2022-08-21T11:53:21;2.92;;;1.60;;
41305;SDS011;27051;50.376;19.152;2022-08-21T11:56:10;4.10;;;1.45;;
41305;SDS011;27051;50.376;19.152;2022-08-21T11:58:44;3.15;;;1.60;;
41305;SDS011;27051;50.376;19.152;2022-08-21T12:01:22;1.75;;;1.45;;
41305;SDS011;27051;50.376;19.152;2022-08-21T12:06:38;2.35;;;1.75;;
41305;SDS011;27051;50.376;19.152;2022-08-21T12:09:05;3.52;;;1.35;;
41305;SDS011;27051;50.376;19.152;2022-08-21T12:11:49;1.77;;;1.20;;
41305;SDS011;27051;50.376;19.152;2022-08-21T12:17:24;2.40;;;1.40;;
41305;SDS011;27051;50.376;19.152;2022-08-21T12:19:59;2.27;;;1.40;;
41305;SDS011;27051;50.376;19.152;2022-08-21T12:22:39;1.92;;;1.20;;
41305;SDS011;27051;50.376;19.152;2022-08-21T12:25:11;1.80;;;1.10;;
41305;SDS011;27051;50.376;19.152;2022-08-21T12:27:47;1.32;;;1.20;;
41305;SDS011;27051;50.376;19.152;2022-08-21T12:33:02;1.12;;;1.02;;
41305;SDS011;27051;50.376;19.152;2022-08-21T12:35:52;2.33;;;1.20;;
41305;SDS011;27051;50.376;19.152;2022-08-21T12:38:32;2.10;;;1.15;;
41305;SDS011;27051;50.376;19.152;2022-08-21T12:41:17;2.52;;;0.90;;
41305;SDS011;27051;50.376;19.152;2022-08-21T12:43:51;1.00;;;0.90;;
41305;SDS011;27051;50.376;19.152;2022-08-21T12:46:21;1.55;;;1.10;;
41305;SDS011;27051;50.376;19.152;2022-08-21T12:48:54;3.80;;;1.20;;
41305;SDS011;27051;50.376;19.152;2022-08-21T12:51:46;0.90;;;0.90;;
41305;SDS011;27051;50.376;19.152;2022-08-21T12:54:24;3.17;;;1.47;;
41305;SDS011;27051;50.376;19.152;2022-08-21T12:56:58;1.52;;;1.37;;
41305;SDS011;27051;50.376;19.152;2022-08-21T12:59:28;1.70;;;1.60;;
41305;SDS011;27051;50.376;19.152;2022-08-21T13:01:56;2.60;;;1.32;;
41305;SDS011;27051;50.376;19.152;2022-08-21T13:04:32;3.60;;;1.52;;
41305;SDS011;27051;50.376;19.152;2022-08-21T13:07:10;4.65;;;1.92;;
41305;SDS011;27051;50.376;19.152;2022-08-21T13:09:44;1.85;;;1.65;;
41305;SDS011;27051;50.376;19.152;2022-08-21T13:12:16;1.65;;;1.55;;
41305;SDS011;27051;50.376;19.152;2022-08-21T13:14:46;3.77;;;1.95;;
41305;SDS011;27051;50.376;19.152;2022-08-21T13:17:18;3.58;;;2.17;;
41305;SDS011;27051;50.376;19.152;2022-08-21T13:20:03;2.72;;;2.05;;
41305;SDS011;27051;50.376;19.152;2022-08-21T13:22:28;3.42;;;1.87;;
41305;SDS011;27051;50.376;19.152;2022-08-21T13:24:55;2.40;;;2.17;;
41305;SDS011;27051;50.376;19.152;2022-08-21T13:27:26;2.45;;;1.45;;
41305;SDS011;27051;50.376;19.152;2022-08-21T13:30:00;2.15;;;1.60;;
41305;SDS011;27051;50.376;19.152;2022-08-21T13:32:42;1.75;;;1.65;;
41305;SDS011;27051;50.376;19.152;2022-08-21T13:35:12;2.45;;;1.87;;
41305;SDS011;27051;50.376;19.152;2022-08-21T13:37:43;2.10;;;1.70;;
41305;SDS011;27051;50.376;19.152;2022-08-21T13:40:14;3.25;;;1.90;;
41305;SDS011;27051;50.376;19.152;2022-08-21T13:42:45;1.85;;;1.72;;
41305;SDS011;27051;50.376;19.152;2022-08-21T13:45:21;3.40;;;1.70;;
41305;SDS011;27051;50.376;19.152;2022-08-21T13:47:52;1.67;;;1.55;;
41305;SDS011;27051;50.376;19.152;2022-08-21T13:50:21;3.70;;;1.90;;
41305;SDS011;27051;50.376;19.152;2022-08-21T13:52:54;3.20;;;1.90;;
41305;SDS011;27051;50.376;19.152;2022-08-21T13:55:25;2.30;;;2.10;;
41305;SDS011;27051;50.376;19.152;2022-08-21T13:58:05;2.93;;;2.37;;
41305;SDS011;27051;50.376;19.152;2022-08-21T14:00:34;2.70;;;2.37;;
41305;SDS011;27051;50.376;19.152;2022-08-21T14:03:11;3.72;;;2.17;;
41305;SDS011;27051;50.376;19.152;2022-08-21T14:06:00;2.62;;;2.42;;
41305;SDS011;27051;50.376;19.152;2022-08-21T14:11:36;3.75;;;2.95;;
41305;SDS011;27051;50.376;19.152;2022-08-21T14:14:05;3.60;;;2.90;;
41305;SDS011;27051;50.376;19.152;2022-08-21T14:16:41;8.80;;;3.92;;
41305;SDS011;27051;50.376;19.152;2022-08-21T14:19:20;5.35;;;3.30;;
41305;SDS011;27051;50.376;19.152;2022-08-21T14:21:54;5.35;;;3.67;;
41305;SDS011;27051;50.376;19.152;2022-08-21T14:29:34;7.40;;;4.92;;
41305;SDS011;27051;50.376;19.152;2022-08-21T14:32:18;7.50;;;4.58;;
41305;SDS011;27051;50.376;19.152;2022-08-21T14:34:49;6.03;;;4.53;;
41305;SDS011;27051;50.376;19.152;2022-08-21T14:37:15;7.28;;;4.65;;
41305;SDS011;27051;50.376;19.152;2022-08-21T14:39:42;5.17;;;4.50;;
41305;SDS011;27051;50.376;19.152;2022-08-21T14:42:09;6.92;;;4.58;;
41305;SDS011;27051;50.376;19.152;2022-08-21T14:44:36;7.85;;;4.72;;
41305;SDS011;27051;50.376;19.152;2022-08-21T14:47:03;8.28;;;4.42;;
41305;SDS011;27051;50.376;19.152;2022-08-21T14:52:27;5.35;;;3.90;;
41305;SDS011;27051;50.376;19.152;2022-08-21T14:55:00;6.90;;;4.33;;
41305;SDS011;27051;50.376;19.152;2022-08-21T14:57:26;6.03;;;3.70;;
41305;SDS011;27051;50.376;19.152;2022-08-21T14:59:56;4.95;;;3.77;;
41305;SDS011;27051;50.376;19.152;2022-08-21T15:02:23;5.97;;;3.22;;
41305;SDS011;27051;50.376;19.152;2022-08-21T15:04:50;5.95;;;3.05;;
41305;SDS011;27051;50.376;19.152;2022-08-21T15:07:16;4.85;;;3.50;;
41305;SDS011;27051;50.376;19.152;2022-08-21T15:09:43;6.25;;;3.30;;
41305;SDS011;27051;50.376;19.152;2022-08-21T15:12:10;5.67;;;2.90;;
41305;SDS011;27051;50.376;19.152;2022-08-21T15:14:39;4.70;;;3.37;;
41305;SDS011;27051;50.376;19.152;2022-08-21T15:17:07;5.67;;;3.42;;
41305;SDS011;27051;50.376;19.152;2022-08-21T15:19:35;4.85;;;2.90;;
41305;SDS011;27051;50.376;19.152;2022-08-21T15:22:02;4.22;;;3.20;;
41305;SDS011;27051;50.376;19.152;2022-08-21T15:24:30;7.15;;;3.80;;
41305;SDS011;27051;50.376;19.152;2022-08-21T15:26:58;5.28;;;3.60;;
41305;SDS011;27051;50.376;19.152;2022-08-21T15:29:28;6.47;;;3.90;;
41305;SDS011;27051;50.376;19.152;2022-08-21T15:31:57;7.47;;;3.80;;
41305;SDS011;27051;50.376;19.152;2022-08-21T15:34:28;6.83;;;3.67;;
41305;SDS011;27051;50.376;19.152;2022-08-21T15:36:57;6.65;;;4.22;;
41305;SDS011;27051;50.376;19.152;2022-08-21T15:39:25;5.75;;;4.03;;
41305;SDS011;27051;50.376;19.152;2022-08-21T15:41:52;9.75;;;4.22;;
41305;SDS011;27051;50.376;19.152;2022-08-21T15:44:19;6.70;;;4.28;;
41305;SDS011;27051;50.376;19.152;2022-08-21T15:46:47;6.05;;;3.52;;
41305;SDS011;27051;50.376;19.152;2022-08-21T15:49:15;7.17;;;3.90;;
41305;SDS011;27051;50.376;19.152;2022-08-21T15:51:44;6.30;;;3.55;;
41305;SDS011;27051;50.376;19.152;2022-08-21T15:54:15;7.20;;;3.83;;
41305;SDS011;27051;50.376;19.152;2022-08-21T15:56:46;6.42;;;3.90;;
41305;SDS011;27051;50.376;19.152;2022-08-21T15:59:17;7.17;;;3.90;;
41305;SDS011;27051;50.376;19.152;2022-08-21T16:01:48;5.62;;;3.77;;